Time;durP1;ratioP1;P1;durP2;ratioP2;P2;SDS_P1;SDS_P2;PMS_P1;PMS_P2;Temp;Humidity;BMP_temperature;BMP_pressure;BME280_temperature;BME280_humidity;BME280_pressure;Samples;Min_cycle;Max_cycle;Signal;HPM_P1;HPM_P2
2023/03/18 04:01:26;;;;;;;0.70;0.50;;;16.60;50.20;;;;;;5564711;22;45935;-59
2023/03/18 04:03:51;;;;;;;0.98;0.60;;;16.60;50.20;;;;;;4997387;28;45782;-58
2023/03/18 04:06:17;;;;;;;0.70;0.55;;;16.60;50.20;;;;;;4971271;28;45237;-59
2023/03/18 04:08:42;;;;;;;0.50;0.50;;;16.60;50.30;;;;;;4997457;28;44850;-58
2023/03/18 04:11:08;;;;;;;0.70;0.50;;;16.60;50.20;;;;;;4974158;28;44912;-59
2023/03/18 04:13:34;;;;;;;1.30;0.80;;;16.60;50.30;;;;;;4966795;28;44712;-58
2023/03/18 04:15:59;;;;;;;0.50;0.50;;;16.60;50.20;;;;;;4969937;28;46399;-58
2023/03/18 04:18:25;;;;;;;1.05;0.60;;;16.60;50.20;;;;;;4966338;28;44802;-54
2023/03/18 04:20:51;;;;;;;0.40;0.40;;;16.60;50.20;;;;;;4985487;28;45197;-59
2023/03/18 04:23:16;;;;;;;0.70;0.50;;;16.50;50.20;;;;;;4965269;28;45498;-59
2023/03/18 04:25:42;;;;;;;0.80;0.50;;;16.60;50.20;;;;;;4948932;28;46037;-58
2023/03/18 04:28:08;;;;;;;0.80;0.65;;;16.50;50.20;;;;;;4971189;28;46015;-55
2023/03/18 04:30:33;;;;;;;0.93;0.60;;;16.60;50.20;;;;;;4948374;28;45531;-56
2023/03/18 04:33:00;;;;;;;1.17;0.60;;;16.50;50.20;;;;;;4966844;28;45292;-55
2023/03/18 04:35:26;;;;;;;0.70;0.60;;;16.50;50.20;;;;;;4963821;28;46367;-60
2023/03/18 04:37:53;;;;;;;0.85;0.60;;;16.50;50.20;;;;;;4961430;28;45372;-59
2023/03/18 04:40:19;;;;;;;0.70;0.60;;;16.50;50.20;;;;;;4982114;28;45226;-58
2023/03/18 04:42:46;;;;;;;0.50;0.50;;;16.50;50.30;;;;;;4966795;28;45261;-59
2023/03/18 04:45:15;;;;;;;0.77;0.60;;;16.50;50.30;;;;;;4965264;28;45358;-58
2023/03/18 04:47:41;;;;;;;0.93;0.65;;;16.50;50.30;;;;;;4948492;28;45442;-59
2023/03/18 04:50:10;;;;;;;0.57;0.50;;;16.50;50.30;;;;;;4971178;28;45386;-58
2023/03/18 04:52:37;;;;;;;0.95;0.47;;;16.50;50.30;;;;;;4968339;28;44769;-58
2023/03/18 04:55:03;;;;;;;0.82;0.68;;;16.50;50.30;;;;;;4961508;28;45568;-62
2023/03/18 04:57:30;;;;;;;0.70;0.60;;;16.50;50.30;;;;;;4946830;28;45213;-59
2023/03/18 04:59:56;;;;;;;0.65;0.45;;;16.50;50.30;;;;;;4961165;28;45363;-58
2023/03/18 05:02:21;;;;;;;0.65;0.63;;;16.50;50.30;;;;;;4939626;28;45880;-59
2023/03/18 05:04:47;;;;;;;0.68;0.47;;;16.50;50.30;;;;;;4950724;28;45550;-59
2023/03/18 05:07:14;;;;;;;0.85;0.43;;;16.50;50.30;;;;;;4960341;28;45259;-58
2023/03/18 05:09:40;;;;;;;0.50;0.40;;;16.50;50.30;;;;;;4980430;28;46464;-58
2023/03/18 05:12:09;;;;;;;0.50;0.43;;;16.50;50.30;;;;;;4969758;28;45210;-58
2023/03/18 05:14:35;;;;;;;1.00;0.70;;;16.40;50.30;;;;;;4954753;28;45434;-56
2023/03/18 05:17:02;;;;;;;0.63;0.50;;;16.40;50.30;;;;;;4970476;28;45139;-58
2023/03/18 05:19:28;;;;;;;0.52;0.50;;;16.40;50.30;;;;;;4962695;28;45236;-60
2023/03/18 05:21:54;;;;;;;0.63;0.60;;;16.40;50.30;;;;;;4947972;28;46155;-58
2023/03/18 05:24:20;;;;;;;0.65;0.60;;;16.40;50.30;;;;;;4984937;28;45283;-58
2023/03/18 05:26:46;;;;;;;0.60;0.60;;;16.40;50.30;;;;;;4956273;28;45271;-58
2023/03/18 05:29:12;;;;;;;0.65;0.60;;;16.40;50.30;;;;;;4963876;28;45302;-62
2023/03/18 05:31:38;;;;;;;0.45;0.45;;;16.40;50.30;;;;;;4953704;28;44957;-59
2023/03/18 05:34:05;;;;;;;0.50;0.50;;;16.40;50.40;;;;;;4942472;28;46711;-58
2023/03/18 05:36:31;;;;;;;0.60;0.52;;;16.40;50.30;;;;;;4956071;28;46139;-58
2023/03/18 05:38:57;;;;;;;0.82;0.70;;;16.40;50.30;;;;;;4971915;28;45424;-56
2023/03/18 05:41:23;;;;;;;0.50;0.47;;;16.40;50.30;;;;;;4958908;28;45330;-61
2023/03/18 05:43:49;;;;;;;0.45;0.45;;;16.40;50.30;;;;;;4965182;28;45264;-59
2023/03/18 05:46:15;;;;;;;0.50;0.50;;;16.40;50.30;;;;;;4954964;28;45486;-58
2023/03/18 05:48:40;;;;;;;0.63;0.60;;;16.40;50.30;;;;;;4967479;28;45183;-58
2023/03/18 05:51:06;;;;;;;0.63;0.60;;;16.40;50.30;;;;;;4974131;28;45244;-57
2023/03/18 05:53:32;;;;;;;0.47;0.47;;;16.40;50.30;;;;;;4973279;28;46581;-59
2023/03/18 05:55:58;;;;;;;0.50;0.50;;;16.40;50.30;;;;;;4971581;28;44645;-58
2023/03/18 05:58:24;;;;;;;0.68;0.60;;;16.40;50.30;;;;;;4978892;28;44898;-57
2023/03/18 06:00:50;;;;;;;0.80;0.60;;;16.40;50.30;;;;;;4968244;28;45042;-58
2023/03/18 06:03:17;;;;;;;0.80;0.60;;;16.40;50.30;;;;;;4946921;28;45308;-58
2023/03/18 06:05:42;;;;;;;0.65;0.65;;;16.40;50.30;;;;;;4955993;28;45162;-59
2023/03/18 06:08:09;;;;;;;0.75;0.60;;;16.40;50.30;;;;;;4979892;28;45394;-59
2023/03/18 06:10:35;;;;;;;0.60;0.60;;;16.40;50.30;;;;;;4975616;28;45369;-56
2023/03/18 06:13:00;;;;;;;0.70;0.70;;;16.40;50.30;;;;;;4961309;28;45483;-57
2023/03/18 06:15:29;;;;;;;1.10;0.80;;;16.40;50.40;;;;;;4971052;28;44733;-59
2023/03/18 06:17:55;;;;;;;0.50;0.50;;;16.30;50.40;;;;;;4964574;28;46571;-58
2023/03/18 06:20:21;;;;;;;0.73;0.60;;;16.30;50.40;;;;;;4959865;28;45503;-59
2023/03/18 06:22:50;;;;;;;0.55;0.40;;;16.30;50.40;;;;;;4973745;28;46699;-58
2023/03/18 06:25:19;;;;;;;0.80;0.70;;;16.30;50.40;;;;;;4958957;28;45208;-58
2023/03/18 06:27:46;;;;;;;0.65;0.50;;;16.30;50.40;;;;;;4952125;28;45318;-58
2023/03/18 06:30:13;;;;;;;0.60;0.50;;;16.30;50.40;;;;;;4965658;28;46064;-59
2023/03/18 06:32:39;;;;;;;0.50;0.50;;;16.30;50.40;;;;;;4953840;28;46674;-58
2023/03/18 06:35:05;;;;;;;0.70;0.60;;;16.30;50.40;;;;;;4974820;28;45462;-62
2023/03/18 06:37:31;;;;;;;0.70;0.70;;;16.30;50.40;;;;;;4964411;28;45921;-58
2023/03/18 06:39:57;;;;;;;0.60;0.50;;;16.30;50.40;;;;;;4984737;28;45372;-58
2023/03/18 06:42:22;;;;;;;0.88;0.63;;;16.30;50.40;;;;;;4963614;28;46185;-57
2023/03/18 06:44:51;;;;;;;0.40;0.40;;;16.30;50.30;;;;;;4967275;28;45633;-59
2023/03/18 06:47:18;;;;;;;0.73;0.60;;;16.30;50.40;;;;;;4965878;28;45373;-57
2023/03/18 06:49:44;;;;;;;0.75;0.60;;;16.30;50.50;;;;;;4938975;28;45248;-59
2023/03/18 06:52:09;;;;;;;0.98;0.50;;;16.30;50.40;;;;;;4971079;28;45470;-56
2023/03/18 06:54:35;;;;;;;0.50;0.50;;;16.30;50.50;;;;;;4959534;28;45565;-57
2023/03/18 06:57:00;;;;;;;1.13;0.73;;;16.30;50.40;;;;;;4975305;28;44780;-57
2023/03/18 06:59:26;;;;;;;0.55;0.50;;;16.30;50.50;;;;;;4967617;28;45518;-55
2023/03/18 07:01:51;;;;;;;0.55;0.55;;;16.30;50.40;;;;;;4965970;28;45552;-57
2023/03/18 07:04:17;;;;;;;0.57;0.57;;;16.20;50.40;;;;;;4961254;28;45271;-61
2023/03/18 07:06:43;;;;;;;0.68;0.68;;;16.30;51.10;;;;;;4961307;28;45173;-56
2023/03/18 07:09:11;;;;;;;0.57;0.57;;;16.30;50.50;;;;;;4970423;28;44953;-59
2023/03/18 07:11:36;;;;;;;0.52;0.52;;;16.20;50.50;;;;;;4975718;28;46507;-59
2023/03/18 07:14:02;;;;;;;0.70;0.70;;;16.20;50.40;;;;;;4982211;28;45538;-59
2023/03/18 07:16:29;;;;;;;1.52;0.80;;;16.20;50.40;;;;;;4949869;28;45173;-61
2023/03/18 07:18:57;;;;;;;0.68;0.47;;;16.30;50.40;;;;;;4979322;28;45176;-60
2023/03/18 07:21:22;;;;;;;0.73;0.45;;;16.20;50.40;;;;;;4975648;28;45283;-59
2023/03/18 07:23:48;;;;;;;1.08;0.68;;;16.30;50.40;;;;;;4975061;28;45248;-58
2023/03/18 07:26:13;;;;;;;0.50;0.50;;;16.30;50.40;;;;;;4967502;28;46568;-58
2023/03/18 07:28:39;;;;;;;0.75;0.47;;;16.30;50.40;;;;;;4963533;28;45583;-59
2023/03/18 07:31:05;;;;;;;0.75;0.60;;;16.30;50.40;;;;;;4951657;28;46955;-57
2023/03/18 07:33:32;;;;;;;0.70;0.50;;;16.30;50.40;;;;;;4977641;28;45486;-58
2023/03/18 07:35:57;;;;;;;0.60;0.60;;;16.30;50.40;;;;;;4961334;28;46535;-57
2023/03/18 07:38:23;;;;;;;0.68;0.50;;;16.30;50.30;;;;;;4964211;28;44913;-58
2023/03/18 07:40:48;;;;;;;0.50;0.50;;;16.30;50.40;;;;;;4977983;28;46245;-58
2023/03/18 07:43:14;;;;;;;0.85;0.63;;;16.20;50.30;;;;;;4971430;28;45259;-59
2023/03/18 07:45:39;;;;;;;0.57;0.55;;;16.30;50.40;;;;;;4933564;28;45153;-63
2023/03/18 07:48:06;;;;;;;0.70;0.70;;;16.30;50.30;;;;;;4969870;28;45634;-58
2023/03/18 07:50:32;;;;;;;0.52;0.52;;;16.30;50.30;;;;;;4962172;28;45732;-57
2023/03/18 07:52:58;;;;;;;1.00;0.57;;;16.30;50.30;;;;;;4983004;28;46005;-58
2023/03/18 07:55:24;;;;;;;0.47;0.47;;;16.30;50.20;;;;;;4969209;28;45285;-58
2023/03/18 07:57:49;;;;;;;0.55;0.50;;;16.30;50.30;;;;;;4963192;28;46173;-59
2023/03/18 08:00:16;;;;;;;1.30;0.60;;;16.40;50.30;;;;;;4970506;28;47016;-56
2023/03/18 08:02:41;;;;;;;0.40;0.40;;;16.40;50.30;;;;;;4940456;28;45194;-59
2023/03/18 08:05:07;;;;;;;0.82;0.60;;;16.40;50.20;;;;;;4979298;28;44755;-57
2023/03/18 08:07:34;;;;;;;0.93;0.70;;;16.40;50.20;;;;;;4971569;28;45384;-58
2023/03/18 08:10:00;;;;;;;0.80;0.60;;;16.40;50.20;;;;;;4967295;28;45570;-59
2023/03/18 08:12:26;;;;;;;0.85;0.63;;;16.40;50.20;;;;;;4957415;28;45267;-58
2023/03/18 08:14:52;;;;;;;0.60;0.55;;;16.30;50.10;;;;;;4979862;28;44699;-60
2023/03/18 08:17:17;;;;;;;0.73;0.60;;;16.40;50.10;;;;;;4948730;28;45454;-60
2023/03/18 08:19:43;;;;;;;0.60;0.50;;;16.40;50.00;;;;;;4969279;28;45420;-60
2023/03/18 08:22:08;;;;;;;0.63;0.50;;;16.50;50.00;;;;;;4954748;28;45647;-59
2023/03/18 08:24:36;;;;;;;0.70;0.43;;;16.40;50.00;;;;;;4978112;28;46355;-59
2023/03/18 08:27:02;;;;;;;0.60;0.52;;;16.50;49.90;;;;;;4946259;28;45531;-59
2023/03/18 08:29:27;;;;;;;0.70;0.60;;;16.50;49.90;;;;;;4969072;28;46093;-58
2023/03/18 08:31:53;;;;;;;0.65;0.50;;;16.50;49.90;;;;;;4953538;28;44906;-60
2023/03/18 08:34:18;;;;;;;0.80;0.68;;;16.50;49.90;;;;;;4949646;28;45748;-60
2023/03/18 08:36:44;;;;;;;0.50;0.50;;;16.50;49.90;;;;;;4974018;28;45218;-59
2023/03/18 08:39:09;;;;;;;0.40;0.40;;;16.50;49.90;;;;;;4962693;28;45559;-59
2023/03/18 08:41:35;;;;;;;0.60;0.50;;;16.50;49.90;;;;;;4972787;28;46297;-59
2023/03/18 08:44:02;;;;;;;0.52;0.43;;;16.50;49.90;;;;;;4948652;28;45099;-60
2023/03/18 08:46:28;;;;;;;0.75;0.50;;;16.50;49.90;;;;;;4956369;28;45285;-59
2023/03/18 08:48:53;;;;;;;0.65;0.40;;;16.50;49.90;;;;;;4937831;28;45892;-59
2023/03/18 08:51:21;;;;;;;0.68;0.60;;;16.50;49.90;;;;;;4957522;28;45291;-60
2023/03/18 08:53:46;;;;;;;0.93;0.60;;;16.50;50.00;;;;;;4971886;28;44847;-59
2023/03/18 08:56:13;;;;;;;0.75;0.60;;;16.50;49.90;;;;;;4940085;28;45199;-59
2023/03/18 08:58:39;;;;;;;0.32;0.32;;;16.50;49.90;;;;;;4980152;28;45466;-59
2023/03/18 09:01:04;;;;;;;0.77;0.70;;;16.50;49.90;;;;;;4969699;28;45015;-59
2023/03/18 09:03:30;;;;;;;0.93;0.70;;;16.50;49.80;;;;;;4967474;28;45088;-60
2023/03/18 09:05:56;;;;;;;0.75;0.60;;;16.50;49.80;;;;;;4962943;28;45294;-60
2023/03/18 09:08:22;;;;;;;0.65;0.50;;;16.60;49.80;;;;;;4965205;28;46111;-60
2023/03/18 09:10:52;;;;;;;0.85;0.65;;;16.60;49.80;;;;;;4957944;28;45619;-60
2023/03/18 09:13:18;;;;;;;0.55;0.55;;;16.60;49.70;;;;;;4962369;28;45546;-60
2023/03/18 09:15:43;;;;;;;0.95;0.60;;;16.60;49.60;;;;;;4957819;28;46500;-60
2023/03/18 09:18:09;;;;;;;0.70;0.70;;;16.60;49.60;;;;;;4982140;28;45312;-58
2023/03/18 09:20:34;;;;;;;0.60;0.60;;;16.60;49.50;;;;;;4944488;28;45308;-59
2023/03/18 09:23:01;;;;;;;0.32;0.32;;;16.70;49.50;;;;;;4976630;28;45278;-60
2023/03/18 09:25:26;;;;;;;1.48;0.68;;;16.70;49.50;;;;;;4978334;28;44792;-63
2023/03/18 09:27:52;;;;;;;0.45;0.45;;;16.70;49.50;;;;;;4954980;28;45134;-55
2023/03/18 09:30:18;;;;;;;0.55;0.47;;;16.70;49.50;;;;;;4962722;28;45773;-64
2023/03/18 09:32:44;;;;;;;0.50;0.50;;;16.70;49.50;;;;;;4957318;28;45163;-58
2023/03/18 09:35:10;;;;;;;0.60;0.50;;;16.70;49.40;;;;;;4960139;28;45385;-64
2023/03/18 09:37:36;;;;;;;0.63;0.50;;;16.70;49.40;;;;;;4985067;28;45355;-60
2023/03/18 09:40:03;;;;;;;0.50;0.50;;;16.70;49.40;;;;;;4951225;28;45213;-60
2023/03/18 09:42:56;;;;;;;0.60;0.57;;;16.80;49.50;;;;;;4932439;28;45624;-59
2023/03/18 09:45:43;;;;;;;0.60;0.52;;;16.80;49.40;;;;;;4964659;28;44706;-60
2023/03/18 09:48:34;;;;;;;0.60;0.60;;;16.80;49.40;;;;;;4971453;28;46476;-59
2023/03/18 09:51:24;;;;;;;0.93;0.75;;;16.80;49.30;;;;;;4979259;28;45295;-59
2023/03/18 09:54:11;;;;;;;0.50;0.50;;;16.80;49.30;;;;;;4964752;28;45345;-59
2023/03/18 09:56:38;;;;;;;0.50;0.50;;;16.80;49.30;;;;;;4955362;28;44854;-60
2023/03/18 09:59:14;;;;;;;0.70;0.60;;;16.80;49.30;;;;;;4955756;28;46391;-59
2023/03/18 10:01:40;;;;;;;0.98;0.77;;;16.80;49.30;;;;;;4958985;28;45650;-59
2023/03/18 10:04:26;;;;;;;0.50;0.50;;;16.80;49.40;;;;;;4976363;28;45356;-60
2023/03/18 10:07:03;;;;;;;0.77;0.60;;;16.80;49.30;;;;;;4945663;28;45728;-60
2023/03/18 10:09:43;;;;;;;0.77;0.68;;;16.80;49.30;;;;;;4960439;28;45518;-58
2023/03/18 10:12:29;;;;;;;0.70;0.60;;;16.90;49.30;;;;;;4979938;28;45254;-59
2023/03/18 10:15:05;;;;;;;0.52;0.47;;;16.90;49.30;;;;;;4962539;28;45096;-60
2023/03/18 10:17:48;;;;;;;0.90;0.60;;;16.90;49.30;;;;;;4959050;28;45820;-59
2023/03/18 10:20:18;;;;;;;0.93;0.70;;;16.90;49.30;;;;;;4968679;28;45588;-62
2023/03/18 10:23:10;;;;;;;0.60;0.60;;;16.90;49.30;;;;;;4968601;28;45503;-60
2023/03/18 10:26:01;;;;;;;0.50;0.50;;;16.90;49.30;;;;;;4940677;28;45253;-59
2023/03/18 10:28:58;;;;;;;0.60;0.57;;;16.90;49.30;;;;;;4970265;28;45932;-59
2023/03/18 10:31:51;;;;;;;0.57;0.50;;;16.90;49.30;;;;;;4942830;28;46648;-59
2023/03/18 10:34:26;;;;;;;0.65;0.45;;;16.90;49.20;;;;;;4984294;28;44719;-59
2023/03/18 10:37:05;;;;;;;0.50;0.40;;;16.90;49.30;;;;;;4946316;28;45459;-60
2023/03/18 10:39:32;;;;;;;1.02;0.63;;;16.90;49.30;;;;;;4949859;28;45197;-60
2023/03/18 10:42:00;;;;;;;0.50;0.50;;;16.90;49.30;;;;;;4942285;28;47484;-59
2023/03/18 10:44:32;;;;;;;0.60;0.60;;;16.90;49.30;;;;;;4955834;28;45572;-59
2023/03/18 10:47:18;;;;;;;1.00;0.73;;;17.00;49.30;;;;;;4933438;28;45213;-61
2023/03/18 10:50:04;;;;;;;0.70;0.60;;;17.00;49.20;;;;;;4977688;28;44760;-61
2023/03/18 10:52:46;;;;;;;0.73;0.55;;;17.00;49.20;;;;;;4971166;28;46531;-59
2023/03/18 10:55:16;;;;;;;0.50;0.50;;;17.00;49.20;;;;;;4935886;28;45180;-61
2023/03/18 10:57:42;;;;;;;0.68;0.68;;;17.00;49.10;;;;;;4948298;28;45357;-60
2023/03/18 11:00:25;;;;;;;1.20;0.55;;;17.00;49.10;;;;;;4975991;28;45357;-61
2023/03/18 11:02:51;;;;;;;0.95;0.50;;;17.00;49.10;;;;;;4965693;28;45504;-60
2023/03/18 11:05:28;;;;;;;0.70;0.60;;;17.10;49.20;;;;;;4953939;28;45205;-59
2023/03/18 11:07:58;;;;;;;0.65;0.50;;;17.10;49.10;;;;;;4969076;28;45190;-58
2023/03/18 11:10:29;;;;;;;0.57;0.57;;;17.10;49.10;;;;;;4946684;28;45200;-58
2023/03/18 11:13:01;;;;;;;0.57;0.47;;;17.10;49.70;;;;;;4981145;28;46759;-60
2023/03/18 11:15:38;;;;;;;0.68;0.40;;;17.10;49.10;;;;;;4963262;28;45341;-60
2023/03/18 11:18:04;;;;;;;1.08;0.60;;;17.10;49.10;;;;;;4949258;28;45087;-59
2023/03/18 11:20:43;;;;;;;0.43;0.38;;;17.10;49.20;;;;;;4959110;28;45264;-59
2023/03/18 11:23:34;;;;;;;0.63;0.50;;;17.10;49.10;;;;;;4952737;28;45600;-59
2023/03/18 11:26:00;;;;;;;0.35;0.35;;;17.10;49.10;;;;;;4948404;28;45583;-59
2023/03/18 11:28:28;;;;;;;0.63;0.63;;;17.10;49.10;;;;;;4968410;28;46110;-59
2023/03/18 11:30:59;;;;;;;0.60;0.50;;;17.20;49.10;;;;;;4936214;28;45300;-60
2023/03/18 11:33:28;;;;;;;0.73;0.63;;;17.10;49.10;;;;;;4981819;28;47129;-59
2023/03/18 11:35:57;;;;;;;0.85;0.60;;;17.10;49.10;;;;;;4959744;28;44637;-60
2023/03/18 11:38:28;;;;;;;0.32;0.32;;;17.10;49.10;;;;;;4970705;28;45388;-60
2023/03/18 11:41:15;;;;;;;0.60;0.55;;;17.20;49.10;;;;;;4949227;28;45209;-61
2023/03/18 11:44:13;;;;;;;0.52;0.45;;;17.20;49.00;;;;;;4955714;28;46562;-59
2023/03/18 11:46:54;;;;;;;0.40;0.40;;;17.20;49.00;;;;;;4971921;28;45285;-59
2023/03/18 11:49:24;;;;;;;0.47;0.47;;;17.20;49.00;;;;;;4962636;28;45106;-59
2023/03/18 11:51:58;;;;;;;0.65;0.43;;;17.20;49.00;;;;;;4947418;28;44728;-60
2023/03/18 11:54:47;;;;;;;0.60;0.60;;;17.20;49.00;;;;;;4980175;28;45332;-59
2023/03/18 11:57:31;;;;;;;0.40;0.40;;;17.20;49.00;;;;;;4945343;28;45607;-59
2023/03/18 12:00:09;;;;;;;0.88;0.60;;;17.30;49.00;;;;;;4966839;28;45521;-59
2023/03/18 12:02:58;;;;;;;0.63;0.57;;;17.30;49.00;;;;;;4974601;28;44992;-59
2023/03/18 12:05:29;;;;;;;0.45;0.40;;;17.30;49.00;;;;;;4949847;28;46679;-58
2023/03/18 12:08:15;;;;;;;0.80;0.60;;;17.30;49.10;;;;;;4983748;28;44880;-58
2023/03/18 12:10:49;;;;;;;0.40;0.40;;;17.30;49.10;;;;;;4973695;28;45266;-58
2023/03/18 12:13:18;;;;;;;0.38;0.38;;;17.30;49.00;;;;;;4965421;28;45686;-60
2023/03/18 12:15:54;;;;;;;0.80;0.70;;;17.30;49.00;;;;;;4969047;28;46045;-59
2023/03/18 12:18:39;;;;;;;0.50;0.50;;;17.30;49.00;;;;;;4962520;28;44919;-58
2023/03/18 12:21:12;;;;;;;1.00;0.60;;;17.20;49.00;;;;;;4968881;28;45527;-60
2023/03/18 12:23:52;;;;;;;0.93;0.65;;;17.30;49.10;;;;;;4950281;28;45252;-60
2023/03/18 12:26:27;;;;;;;1.00;0.57;;;17.20;49.00;;;;;;4939143;28;45718;-59
2023/03/18 12:29:06;;;;;;;0.43;0.40;;;17.30;49.10;;;;;;4979284;28;46020;-58
2023/03/18 12:31:53;;;;;;;0.52;0.52;;;17.30;49.10;;;;;;4972017;28;44752;-60
2023/03/18 12:34:49;;;;;;;0.50;0.40;;;17.30;49.10;;;;;;4979793;28;45306;-58
2023/03/18 12:37:23;;;;;;;0.40;0.40;;;17.30;49.10;;;;;;4951339;28;48997;-57
2023/03/18 12:40:28;;;;;;;0.70;0.50;;;17.30;49.10;;;;;;4970909;28;45422;-59
2023/03/18 12:43:06;;;;;;;0.68;0.57;;;17.30;49.10;;;;;;4966669;28;45233;-58
2023/03/18 12:45:34;;;;;;;0.47;0.40;;;17.30;49.20;;;;;;4971300;28;45507;-60
2023/03/18 12:48:18;;;;;;;0.40;0.40;;;17.30;49.20;;;;;;4941105;28;47847;-58
2023/03/18 12:51:17;;;;;;;0.50;0.40;;;17.30;49.20;;;;;;4961497;28;45095;-59
2023/03/18 12:53:48;;;;;;;0.70;0.57;;;17.20;49.10;;;;;;4945722;28;47506;-60
2023/03/18 12:56:27;;;;;;;0.43;0.43;;;17.30;49.20;;;;;;4962259;28;45038;-59
2023/03/18 12:59:04;;;;;;;0.63;0.57;;;17.30;49.20;;;;;;4964534;28;45540;-58
2023/03/18 13:01:44;;;;;;;0.55;0.47;;;17.30;49.40;;;;;;4956415;28;45228;-60
2023/03/18 13:04:17;;;;;;;0.40;0.40;;;17.30;49.30;;;;;;4977205;28;45555;-60
2023/03/18 13:06:43;;;;;;;0.47;0.47;;;17.20;49.30;;;;;;4945213;28;46378;-60
2023/03/18 13:09:32;;;;;;;0.40;0.40;;;17.20;49.30;;;;;;4967213;28;46187;-59
2023/03/18 13:12:26;;;;;;;0.60;0.50;;;17.30;49.40;;;;;;4972076;28;45430;-59
2023/03/18 13:14:58;;;;;;;;;;;17.30;49.40;;;;;;4945966;28;45319;-59
2023/03/18 13:17:32;;;;;;;0.40;0.40;;;17.30;49.40;;;;;;4967915;28;45878;-59
2023/03/18 13:19:59;;;;;;;0.70;0.52;;;17.30;49.30;;;;;;4966358;28;46125;-59
2023/03/18 13:22:44;;;;;;;0.60;0.40;;;17.30;49.20;;;;;;4963812;28;45157;-58
2023/03/18 13:25:47;;;;;;;0.60;0.43;;;17.30;49.20;;;;;;4980996;28;45337;-57
2023/03/18 13:28:30;;;;;;;0.57;0.40;;;17.30;49.10;;;;;;4965717;28;45628;-60
2023/03/18 13:31:15;;;;;;;1.05;0.60;;;17.30;49.20;;;;;;4954683;28;47184;-58
2023/03/18 13:33:58;;;;;;;0.95;0.60;;;17.30;49.20;;;;;;4977675;28;45260;-59
2023/03/18 13:37:06;;;;;;;0.60;0.55;;;17.30;49.20;;;;;;4961165;28;45723;-58
2023/03/18 13:39:53;;;;;;;0.90;0.40;;;17.30;49.20;;;;;;4966785;28;45137;-59
2023/03/18 13:42:29;;;;;;;0.70;0.70;;;17.30;49.20;;;;;;4961138;28;45404;-59
2023/03/18 13:45:03;;;;;;;0.60;0.50;;;17.30;49.30;;;;;;4974239;28;45701;-58
2023/03/18 13:47:31;;;;;;;0.40;0.38;;;17.30;49.20;;;;;;4961161;28;45234;-58
2023/03/18 13:50:02;;;;;;;0.40;0.40;;;17.30;49.20;;;;;;4963800;28;45384;-59
2023/03/18 13:52:43;;;;;;;0.50;0.50;;;17.30;49.20;;;;;;4938925;28;46254;-61
2023/03/18 13:55:33;;;;;;;0.45;0.45;;;17.40;49.30;;;;;;4973590;28;45475;-59
2023/03/18 13:58:12;;;;;;;0.40;0.40;;;17.40;49.20;;;;;;4971543;28;45601;-58
2023/03/18 14:00:40;;;;;;;0.65;0.57;;;17.40;49.20;;;;;;4966565;28;45122;-61
2023/03/18 14:03:50;;;;;;;0.68;0.50;;;17.30;49.20;;;;;;4973775;28;45220;-60
2023/03/18 14:06:34;;;;;;;0.50;0.50;;;17.40;49.20;;;;;;4973594;28;44796;-61
2023/03/18 14:09:40;;;;;;;0.35;0.35;;;17.40;49.20;;;;;;4976361;28;44668;-59
2023/03/18 14:12:41;;;;;;;0.32;0.32;;;17.40;49.20;;;;;;4944570;28;46090;-59
2023/03/18 14:15:11;;;;;;;0.77;0.50;;;17.40;49.20;;;;;;4964593;28;46372;-61
2023/03/18 14:17:37;;;;;;;0.65;0.50;;;17.40;49.20;;;;;;4957128;28;45206;-59
2023/03/18 14:20:18;;;;;;;0.40;0.40;;;17.40;49.20;;;;;;4959500;28;45316;-61
2023/03/18 14:22:44;;;;;;;0.68;0.50;;;17.40;49.20;;;;;;4966969;28;45051;-59
2023/03/18 14:25:21;;;;;;;0.70;0.50;;;17.40;49.20;;;;;;4959731;28;46567;-58
2023/03/18 14:28:12;;;;;;;0.50;0.50;;;17.40;49.20;;;;;;4977464;28;45662;-59
2023/03/18 14:30:37;;;;;;;0.43;0.30;;;17.40;49.20;;;;;;4969126;28;45228;-59
2023/03/18 14:33:04;;;;;;;0.50;0.47;;;17.40;49.20;;;;;;4974024;28;46022;-58
2023/03/18 14:35:32;;;;;;;0.60;0.57;;;17.40;49.20;;;;;;4957494;28;46480;-60
2023/03/18 14:38:19;;;;;;;0.77;0.50;;;17.40;49.20;;;;;;4948274;28;45256;-58
2023/03/18 14:40:45;;;;;;;0.82;0.45;;;17.40;49.20;;;;;;4974405;28;45584;-58
2023/03/18 14:43:36;;;;;;;0.32;0.32;;;17.40;49.20;;;;;;4950799;28;45114;-57
2023/03/18 14:46:03;;;;;;;0.50;0.50;;;17.40;49.20;;;;;;4964405;28;46131;-58
2023/03/18 14:48:30;;;;;;;0.55;0.50;;;17.40;49.20;;;;;;4951895;28;45297;-58
2023/03/18 14:50:58;;;;;;;0.63;0.47;;;17.40;49.20;;;;;;4956603;28;45184;-59
2023/03/18 14:53:28;;;;;;;0.50;0.40;;;17.40;49.30;;;;;;4958621;28;46117;-60
2023/03/18 14:55:55;;;;;;;0.98;0.70;;;17.40;49.30;;;;;;4958105;28;45470;-59
2023/03/18 14:58:21;;;;;;;0.45;0.40;;;17.40;49.30;;;;;;4958306;28;45516;-59
2023/03/18 15:01:08;;;;;;;0.70;0.55;;;17.40;49.30;;;;;;4962351;28;46160;-59
2023/03/18 15:03:34;;;;;;;0.93;0.55;;;17.40;49.20;;;;;;4972730;28;46328;-59
2023/03/18 15:06:01;;;;;;;0.50;0.50;;;17.40;49.20;;;;;;4970928;28;46272;-58
2023/03/18 15:08:31;;;;;;;0.60;0.40;;;17.40;49.20;;;;;;4960061;28;45410;-60
2023/03/18 15:10:57;;;;;;;0.52;0.50;;;17.40;49.30;;;;;;4971222;28;45616;-61
2023/03/18 15:13:24;;;;;;;0.50;0.40;;;17.40;49.30;;;;;;4960282;28;45143;-58
2023/03/18 15:15:53;;;;;;;0.25;0.25;;;17.40;49.30;;;;;;4950724;28;46780;-57
2023/03/18 15:18:23;;;;;;;0.63;0.60;;;17.40;49.30;;;;;;4963579;28;47024;-58
2023/03/18 15:20:58;;;;;;;0.40;0.40;;;17.40;49.30;;;;;;4952745;28;45166;-58
2023/03/18 15:23:35;;;;;;;0.60;0.50;;;17.40;49.30;;;;;;4962149;28;45295;-56
2023/03/18 15:26:15;;;;;;;0.40;0.30;;;17.50;49.30;;;;;;4941573;28;46366;-59
2023/03/18 15:28:41;;;;;;;0.50;0.47;;;17.40;49.20;;;;;;4953872;28;45105;-56
2023/03/18 15:31:07;;;;;;;0.50;0.40;;;17.40;49.30;;;;;;4937613;28;44789;-58
2023/03/18 15:33:35;;;;;;;0.63;0.52;;;17.40;49.20;;;;;;4960228;28;45692;-60
2023/03/18 15:36:13;;;;;;;0.40;0.40;;;17.40;49.30;;;;;;4970458;28;45489;-59
2023/03/18 15:38:45;;;;;;;0.47;0.47;;;17.50;49.40;;;;;;4969705;28;45159;-59
2023/03/18 15:41:11;;;;;;;0.70;0.60;;;17.40;49.30;;;;;;4946411;28;45587;-58
2023/03/18 15:43:43;;;;;;;0.57;0.57;;;17.40;49.30;;;;;;4965127;28;45771;-59
2023/03/18 15:46:21;;;;;;;0.40;0.40;;;17.40;49.30;;;;;;4965312;28;45629;-60
2023/03/18 15:48:54;;;;;;;0.57;0.50;;;17.40;49.30;;;;;;4974408;28;45314;-61
2023/03/18 15:51:31;;;;;;;0.90;0.60;;;17.40;49.30;;;;;;4963229;28;45334;-58
2023/03/18 15:54:08;;;;;;;0.60;0.60;;;17.40;49.30;;;;;;4975957;28;45250;-60
2023/03/18 15:56:34;;;;;;;0.55;0.50;;;17.40;49.30;;;;;;4957558;28;45350;-60
2023/03/18 15:59:27;;;;;;;0.60;0.60;;;17.40;49.30;;;;;;4975956;28;45180;-60
2023/03/18 16:01:56;;;;;;;0.88;0.45;;;17.40;49.30;;;;;;4966830;28;45321;-60
2023/03/18 16:04:23;;;;;;;0.73;0.50;;;17.40;49.40;;;;;;4984372;28;45192;-60
2023/03/18 16:06:48;;;;;;;0.50;0.40;;;17.40;49.30;;;;;;4927674;28;46592;-60
2023/03/18 16:09:21;;;;;;;0.43;0.30;;;17.40;49.30;;;;;;4988206;28;45627;-60
2023/03/18 16:11:51;;;;;;;0.63;0.50;;;17.40;49.40;;;;;;4975904;28;44910;-59
2023/03/18 16:14:18;;;;;;;0.70;0.50;;;17.40;49.40;;;;;;4984344;28;45963;-60
2023/03/18 16:16:44;;;;;;;0.40;0.40;;;17.40;49.40;;;;;;4939291;28;46465;-60
2023/03/18 16:19:27;;;;;;;0.63;0.50;;;17.40;49.40;;;;;;4961800;28;45254;-58
2023/03/18 16:21:57;;;;;;;0.50;0.40;;;17.40;49.40;;;;;;4976939;28;45380;-60
2023/03/18 16:24:23;;;;;;;0.47;0.47;;;17.40;49.40;;;;;;4951403;28;45342;-60
2023/03/18 16:26:50;;;;;;;0.40;0.40;;;17.40;49.40;;;;;;4942467;28;46871;-61
2023/03/18 16:29:17;;;;;;;0.50;0.40;;;17.40;49.40;;;;;;4963321;28;45322;-59
2023/03/18 16:31:43;;;;;;;0.40;0.40;;;17.40;49.40;;;;;;4936591;28;45765;-59
2023/03/18 16:34:16;;;;;;;0.65;0.65;;;17.40;49.40;;;;;;4948493;28;45795;-60
2023/03/18 16:36:42;;;;;;;0.50;0.50;;;17.40;49.50;;;;;;4975739;28;45422;-58
2023/03/18 16:39:21;;;;;;;0.50;0.47;;;17.40;49.40;;;;;;4976399;28;45335;-60
2023/03/18 16:41:46;;;;;;;0.60;0.57;;;17.40;49.50;;;;;;4961422;28;45869;-60
2023/03/18 16:44:14;;;;;;;0.68;0.47;;;17.40;49.40;;;;;;4958600;28;45327;-59
2023/03/18 16:46:40;;;;;;;0.50;0.50;;;17.40;49.40;;;;;;4966531;28;45424;-59
2023/03/18 16:49:13;;;;;;;0.50;0.50;;;17.40;49.50;;;;;;4963146;28;45429;-58
2023/03/18 16:51:40;;;;;;;0.45;0.45;;;17.40;49.40;;;;;;4963449;28;45669;-59
2023/03/18 16:54:21;;;;;;;0.30;0.30;;;17.40;49.50;;;;;;4966475;28;46494;-60
2023/03/18 16:56:48;;;;;;;0.77;0.40;;;17.40;49.50;;;;;;4963020;28;45278;-57
2023/03/18 16:59:14;;;;;;;0.90;0.60;;;17.40;49.50;;;;;;4959803;28;45533;-59
2023/03/18 17:01:42;;;;;;;0.85;0.40;;;17.40;49.50;;;;;;4967496;28;45497;-61
2023/03/18 17:04:19;;;;;;;0.50;0.40;;;17.40;49.50;;;;;;4977154;28;45062;-59
2023/03/18 17:06:45;;;;;;;1.70;0.43;;;17.30;49.50;;;;;;4962049;28;45977;-58
2023/03/18 17:09:10;;;;;;;0.30;0.30;;;17.40;49.60;;;;;;4965576;28;44860;-60
2023/03/18 17:11:36;;;;;;;0.40;0.40;;;17.40;49.50;;;;;;4974439;28;45297;-59